createdAt,value
2022-10-25T00:00:18.680Z,9.757455
2022-10-25T00:01:18.798Z,9.757421
2022-10-25T00:02:18.746Z,9.757567
2022-10-25T00:03:19.664Z,9.757384
2022-10-25T00:04:18.701Z,9.757471
2022-10-25T00:05:18.648Z,9.757498
2022-10-25T00:06:18.635Z,9.757506
2022-10-25T00:07:18.622Z,9.757582
2022-10-25T00:08:18.616Z,9.757631
2022-10-25T00:09:18.639Z,9.757571
2022-10-25T00:10:21.102Z,9.757690
2022-10-25T00:11:19.593Z,9.757470
2022-10-25T00:12:18.589Z,9.757502
2022-10-25T00:13:18.584Z,9.757615
2022-10-25T00:14:18.628Z,9.757660
2022-10-25T00:15:18.560Z,9.757607
2022-10-25T00:16:18.550Z,9.757514
2022-10-25T00:17:18.540Z,9.757396
2022-10-25T00:18:18.542Z,9.757460
2022-10-25T00:19:18.580Z,9.757326
2022-10-25T00:20:18.513Z,9.757406
2022-10-25T00:21:18.508Z,9.757288
2022-10-25T00:22:18.503Z,9.757313
2022-10-25T00:23:18.488Z,9.757628
2022-10-25T00:24:18.483Z,9.757337
2022-10-25T00:25:18.501Z,9.757534
2022-10-25T00:26:18.464Z,9.757469
2022-10-25T00:27:18.452Z,9.757398
2022-10-25T00:28:18.444Z,9.757520
2022-10-25T00:29:18.498Z,9.757298
2022-10-25T00:30:18.457Z,9.757255
2022-10-25T00:31:18.421Z,9.757496
2022-10-25T00:32:18.413Z,9.757368
2022-10-25T00:33:18.407Z,9.757421
2022-10-25T00:34:18.395Z,9.757380
2022-10-25T00:35:18.414Z,9.757689
2022-10-25T00:36:18.383Z,9.757930
2022-10-25T00:37:18.373Z,9.757447
2022-10-25T00:38:18.362Z,9.757562
2022-10-25T00:39:18.355Z,9.757603
2022-10-25T00:40:18.376Z,9.757459
2022-10-25T00:41:18.338Z,9.757506
2022-10-25T00:42:18.333Z,9.757590
2022-10-25T00:43:18.325Z,9.757890
2022-10-25T00:44:18.314Z,9.757576
2022-10-25T00:45:18.329Z,9.757738
2022-10-25T00:46:18.299Z,9.757392
2022-10-25T00:47:18.290Z,9.757700
2022-10-25T00:48:18.282Z,9.758107
2022-10-25T00:49:18.271Z,9.757841
2022-10-25T00:50:18.284Z,9.757329
2022-10-25T00:51:18.253Z,9.757357
2022-10-25T00:52:18.235Z,9.757410
2022-10-25T00:53:18.231Z,9.757511
2022-10-25T00:54:18.290Z,9.757427
2022-10-25T00:55:18.245Z,9.757777
2022-10-25T00:56:18.209Z,9.757577
2022-10-25T00:57:18.193Z,9.757374
2022-10-25T00:58:18.193Z,9.757661
2022-10-25T00:59:18.189Z,9.757711
2022-10-25T01:00:18.214Z,9.757876
2022-10-25T01:01:18.261Z,9.757925
2022-10-25T01:02:18.232Z,9.757762
2022-10-25T01:03:18.146Z,9.757863
2022-10-25T01:04:18.142Z,9.757776
2022-10-25T01:05:18.161Z,9.757700
2022-10-25T01:06:18.145Z,9.757607
2022-10-25T01:07:18.111Z,9.757603
2022-10-25T01:08:18.106Z,9.757466
2022-10-25T01:09:18.104Z,9.757431
2022-10-25T01:10:18.118Z,9.757628
2022-10-25T01:12:18.070Z,9.757712
2022-10-25T01:13:18.064Z,9.757804
2022-10-25T01:14:18.061Z,9.757794
2022-10-25T01:15:18.079Z,9.757700
2022-10-25T01:16:18.031Z,9.757569
2022-10-25T01:17:18.028Z,9.757434
2022-10-25T01:18:18.020Z,9.757377
2022-10-25T01:19:18.008Z,9.757544
2022-10-25T01:20:18.048Z,9.757569
2022-10-25T01:21:17.989Z,9.757645
2022-10-25T01:22:17.988Z,9.757779
2022-10-25T01:23:17.975Z,9.757675
2022-10-25T01:24:17.969Z,9.757522
2022-10-25T01:25:17.989Z,9.757681
2022-10-25T01:26:17.948Z,9.757686
2022-10-25T01:27:17.940Z,9.757550
2022-10-25T01:28:17.935Z,9.757542
2022-10-25T01:29:17.921Z,9.758127
2022-10-25T01:30:17.950Z,9.758248
2022-10-25T01:31:17.910Z,9.758339
2022-10-25T01:32:17.906Z,9.757954
2022-10-25T01:33:17.894Z,9.757623
2022-10-25T01:34:17.880Z,9.757348
2022-10-25T01:35:17.905Z,9.757366
2022-10-25T01:36:17.890Z,9.757354
2022-10-25T01:37:17.861Z,9.757406
2022-10-25T01:38:17.854Z,9.757351
2022-10-25T01:39:17.843Z,9.757405
2022-10-25T01:40:17.865Z,9.757435
2022-10-25T01:41:17.827Z,9.757518
2022-10-25T01:42:17.817Z,9.757396
2022-10-25T01:43:17.806Z,9.757335
2022-10-25T01:44:17.803Z,9.757302
2022-10-25T01:45:17.819Z,9.757362
2022-10-25T01:46:17.777Z,9.757468
2022-10-25T01:47:17.783Z,9.757534
2022-10-25T01:48:17.766Z,9.757555
2022-10-25T01:49:17.756Z,9.757257
2022-10-25T01:50:17.777Z,9.757182
2022-10-25T01:51:17.737Z,9.757263
2022-10-25T01:52:17.729Z,9.757390
2022-10-25T01:53:17.725Z,9.757445
2022-10-25T01:54:17.714Z,9.757535
2022-10-25T01:55:17.742Z,9.757524
2022-10-25T01:56:17.699Z,9.757498
2022-10-25T01:57:36.685Z,9.757527
2022-10-25T01:58:18.685Z,9.757377
2022-10-25T01:59:17.677Z,9.757372
2022-10-25T02:00:17.661Z,9.757484
2022-10-25T02:01:17.882Z,9.757487
2022-10-25T02:02:17.652Z,9.757537
2022-10-25T02:03:17.634Z,9.757646
2022-10-25T02:04:17.632Z,9.757533
2022-10-25T02:05:17.626Z,9.757532
2022-10-25T02:06:17.639Z,9.757421
2022-10-25T02:07:17.609Z,9.757504
2022-10-25T02:08:17.600Z,9.757367
2022-10-25T02:09:17.593Z,9.757433
2022-10-25T02:10:17.586Z,9.757496
2022-10-25T02:11:17.606Z,9.757474
2022-10-25T02:12:17.569Z,9.757446
2022-10-25T02:13:17.555Z,9.757508
2022-10-25T02:14:17.542Z,9.757454
2022-10-25T02:15:17.542Z,9.757400
2022-10-25T02:16:17.558Z,9.757373
2022-10-25T02:17:17.527Z,9.757440
2022-10-25T02:18:17.563Z,9.757506
2022-10-25T02:19:17.503Z,9.757452
2022-10-25T02:20:17.496Z,9.757487
2022-10-25T02:21:17.522Z,9.757531
2022-10-25T02:22:17.485Z,9.757515
2022-10-25T02:23:17.466Z,9.757548
2022-10-25T02:24:17.464Z,9.757496
2022-10-25T02:25:17.472Z,9.757477
2022-10-25T02:26:17.478Z,9.757464
2022-10-25T02:27:17.431Z,9.757556
2022-10-25T02:28:18.431Z,9.757628
2022-10-25T02:29:17.433Z,9.757566
2022-10-25T02:30:17.422Z,9.757474
2022-10-25T02:31:17.432Z,9.757502
2022-10-25T02:32:17.402Z,9.757516
2022-10-25T02:33:17.400Z,9.757508
2022-10-25T02:34:17.380Z,9.757410
2022-10-25T02:35:17.383Z,9.757464
2022-10-25T02:36:17.398Z,9.757466
2022-10-25T02:37:17.353Z,9.757497
2022-10-25T02:38:17.349Z,9.757538
2022-10-25T02:39:17.335Z,9.757519
2022-10-25T02:40:17.324Z,9.757533
2022-10-25T02:41:17.349Z,9.757528
2022-10-25T02:42:17.311Z,9.757556
2022-10-25T02:43:17.319Z,9.757562
2022-10-25T02:44:17.294Z,9.757557
2022-10-25T02:45:17.297Z,9.757570
2022-10-25T02:46:17.311Z,9.757587
2022-10-25T02:47:17.272Z,9.757565
2022-10-25T02:48:17.258Z,9.757592
2022-10-25T02:49:17.256Z,9.757608
2022-10-25T02:50:17.241Z,9.757553
2022-10-25T02:51:17.261Z,9.757626
2022-10-25T02:52:17.229Z,9.757619
2022-10-25T02:53:17.215Z,9.757557
2022-10-25T02:54:17.216Z,9.757582
2022-10-25T02:55:17.203Z,9.757523
2022-10-25T02:56:17.227Z,9.757490
2022-10-25T02:57:17.184Z,9.757507
2022-10-25T02:58:17.185Z,9.757553
2022-10-25T02:59:17.175Z,9.757582
2022-10-25T03:00:17.171Z,9.757525
2022-10-25T03:01:17.296Z,9.757566
2022-10-25T03:02:17.142Z,9.757615
2022-10-25T03:03:17.134Z,9.757593
2022-10-25T03:04:17.130Z,9.757591
2022-10-25T03:05:17.118Z,9.757551
2022-10-25T03:06:17.136Z,9.757728
2022-10-25T03:07:17.115Z,9.757505
2022-10-25T03:08:18.142Z,9.757442
2022-10-25T03:09:17.082Z,9.757465
2022-10-25T03:10:17.077Z,9.757572
2022-10-25T03:11:17.089Z,9.757595
2022-10-25T03:12:17.064Z,9.757445
2022-10-25T03:13:17.049Z,9.757443
2022-10-25T03:14:17.044Z,9.757471
2022-10-25T03:15:17.035Z,9.757453
2022-10-25T03:16:17.048Z,9.757563
2022-10-25T03:17:17.016Z,9.757547
2022-10-25T03:18:17.005Z,9.757476
2022-10-25T03:19:17.005Z,9.757506
2022-10-25T03:20:16.985Z,9.757592
2022-10-25T03:21:17.008Z,9.757618
2022-10-25T03:22:16.973Z,9.757627
2022-10-25T03:23:16.957Z,9.757567
2022-10-25T03:24:16.951Z,9.757537
2022-10-25T03:25:16.943Z,9.757580
2022-10-25T03:26:16.975Z,9.757539
2022-10-25T03:27:16.934Z,9.757540
2022-10-25T03:28:16.922Z,9.757526
2022-10-25T03:29:16.918Z,9.757521
2022-10-25T03:30:16.904Z,9.757470
2022-10-25T03:31:16.902Z,9.757484
2022-10-25T03:32:16.917Z,9.757468
2022-10-25T03:33:16.913Z,9.757410
2022-10-25T03:34:16.870Z,9.757338
2022-10-25T03:35:16.861Z,9.757552
2022-10-25T03:36:16.856Z,9.757371
2022-10-25T03:37:16.871Z,9.757378
2022-10-25T03:38:16.835Z,9.757457
2022-10-25T03:39:16.836Z,9.757544
2022-10-25T03:40:16.824Z,9.757397
2022-10-25T03:41:16.829Z,9.757419
2022-10-25T03:42:16.845Z,9.757401
2022-10-25T03:43:16.878Z,9.757277
2022-10-25T03:44:16.792Z,9.757329
2022-10-25T03:45:16.784Z,9.757313
2022-10-25T03:46:16.773Z,9.757359
2022-10-25T03:47:16.793Z,9.757219
2022-10-25T03:48:16.756Z,9.757262
2022-10-25T03:49:16.747Z,9.757353
2022-10-25T03:50:16.739Z,9.757305
2022-10-25T03:51:16.736Z,9.757326
2022-10-25T03:52:16.754Z,9.757333
2022-10-25T03:53:16.715Z,9.757318
2022-10-25T03:54:16.703Z,9.757529
2022-10-25T03:55:16.695Z,9.757562
2022-10-25T03:56:16.683Z,9.757482
2022-10-25T03:57:16.708Z,9.757494
2022-10-25T03:58:16.679Z,9.757629
2022-10-25T03:59:16.663Z,9.757467
2022-10-25T04:00:16.656Z,9.757549
2022-10-25T04:01:16.831Z,9.757440
2022-10-25T04:02:16.670Z,9.757465
2022-10-25T04:03:16.633Z,9.757528
2022-10-25T04:04:16.620Z,9.757501
2022-10-25T04:05:16.611Z,9.757419
2022-10-25T04:06:16.604Z,9.757379
2022-10-25T04:07:16.626Z,9.757313
2022-10-25T04:08:16.582Z,9.757395
2022-10-25T04:09:16.585Z,9.757380
2022-10-25T04:10:16.570Z,9.757435
2022-10-25T04:11:16.559Z,9.757500
2022-10-25T04:12:16.582Z,9.757506
2022-10-25T04:13:16.543Z,9.757521
2022-10-25T04:14:16.538Z,9.757663
2022-10-25T04:15:16.532Z,9.757543
2022-10-25T04:16:18.365Z,9.757614
2022-10-25T04:17:16.533Z,9.757371
2022-10-25T04:18:16.504Z,9.757488
2022-10-25T04:19:16.493Z,9.757570
2022-10-25T04:20:16.484Z,9.757533
2022-10-25T04:21:16.474Z,9.757703
2022-10-25T04:22:16.499Z,9.757665
2022-10-25T04:23:16.450Z,9.757710
2022-10-25T04:24:16.449Z,9.757661
2022-10-25T04:25:16.438Z,9.757937
2022-10-25T04:26:16.428Z,9.757832
2022-10-25T04:27:16.456Z,9.757714
2022-10-25T04:28:16.425Z,9.757590
2022-10-25T04:29:16.403Z,9.757676
2022-10-25T04:30:16.400Z,9.757927
2022-10-25T04:31:16.386Z,9.757885
2022-10-25T04:32:16.486Z,9.758020
2022-10-25T04:33:16.369Z,9.757822
2022-10-25T04:34:17.362Z,9.757950
2022-10-25T04:35:16.356Z,9.758264
2022-10-25T04:36:16.343Z,9.758368
2022-10-25T04:37:16.373Z,9.758284
2022-10-25T04:38:16.327Z,9.757709
2022-10-25T04:39:17.319Z,9.757517
2022-10-25T04:40:18.210Z,9.757514
2022-10-25T04:41:16.302Z,9.757680
2022-10-25T04:42:16.320Z,9.757772
2022-10-25T04:43:16.344Z,9.757667
2022-10-25T04:44:16.274Z,9.757631
2022-10-25T04:45:16.264Z,9.757541
2022-10-25T04:46:16.257Z,9.757321
2022-10-25T04:47:16.283Z,9.757308
2022-10-25T04:48:16.238Z,9.757493
2022-10-25T04:49:16.231Z,9.757526
2022-10-25T04:50:16.223Z,9.757453
2022-10-25T04:51:16.217Z,9.757424
2022-10-25T04:52:16.237Z,9.757486
2022-10-25T04:53:16.198Z,9.757575
2022-10-25T04:54:16.191Z,9.757701
2022-10-25T04:55:16.180Z,9.757587
2022-10-25T04:56:16.174Z,9.757466
2022-10-25T04:57:16.195Z,9.757379
2022-10-25T04:58:16.153Z,9.757771
2022-10-25T04:59:16.151Z,9.757613
2022-10-25T05:00:16.136Z,9.757619
2022-10-25T05:01:16.162Z,9.757738
2022-10-25T05:02:16.122Z,9.757773
2022-10-25T05:03:16.168Z,9.757758
2022-10-25T05:04:16.100Z,9.757669
2022-10-25T05:05:16.096Z,9.757714
2022-10-25T05:06:16.096Z,9.757599
2022-10-25T05:07:16.079Z,9.757630
2022-10-25T05:08:16.105Z,9.757599
2022-10-25T05:09:16.068Z,9.757852
2022-10-25T05:10:16.053Z,9.757630
2022-10-25T05:11:16.057Z,9.757475
2022-10-25T05:12:16.035Z,9.757387
2022-10-25T05:13:16.057Z,9.757393
2022-10-25T05:14:16.023Z,9.757413
2022-10-25T05:15:16.008Z,9.757375
2022-10-25T05:16:16.004Z,9.757379
2022-10-25T05:17:15.997Z,9.757411
2022-10-25T05:18:16.026Z,9.757337
2022-10-25T05:19:15.983Z,9.757468
2022-10-25T05:20:15.974Z,9.757431
2022-10-25T05:21:16.019Z,9.757418
2022-10-25T05:22:15.958Z,9.757348
2022-10-25T05:23:15.968Z,9.757471
2022-10-25T05:24:15.937Z,9.757442
2022-10-25T05:25:15.928Z,9.757409
2022-10-25T05:26:15.918Z,9.757432
2022-10-25T05:27:15.914Z,9.757419
2022-10-25T05:28:15.935Z,9.757418
2022-10-25T05:29:15.897Z,9.757447
2022-10-25T05:30:15.886Z,9.757442
2022-10-25T05:31:16.015Z,9.757482
2022-10-25T05:32:15.862Z,9.757537
2022-10-25T05:33:15.888Z,9.757484
2022-10-25T05:34:15.846Z,9.757409
2022-10-25T05:35:15.840Z,9.757528
2022-10-25T05:36:15.829Z,9.757483
2022-10-25T05:37:15.831Z,9.757568
2022-10-25T05:38:15.857Z,9.757445
2022-10-25T05:39:15.808Z,9.757395
2022-10-25T05:40:15.810Z,9.757402
2022-10-25T05:41:15.799Z,9.757476
2022-10-25T05:42:15.780Z,9.757423
2022-10-25T05:43:15.808Z,9.757442
2022-10-25T05:44:15.771Z,9.757377
2022-10-25T05:45:15.762Z,9.757387
2022-10-25T05:46:15.751Z,9.757446
2022-10-25T05:47:15.742Z,9.757533
2022-10-25T05:48:15.732Z,9.757410
2022-10-25T05:49:15.761Z,9.757409
2022-10-25T05:50:15.722Z,9.757525
2022-10-25T05:51:28.955Z,9.757392
2022-10-25T05:52:17.703Z,9.757425
2022-10-25T05:53:15.690Z,9.757431
2022-10-25T05:54:15.712Z,9.757465
2022-10-25T05:55:15.676Z,9.757492
2022-10-25T05:56:15.673Z,9.757418
2022-10-25T05:57:15.663Z,9.757479
2022-10-25T05:58:15.647Z,9.757621
2022-10-25T05:59:15.670Z,9.757629
2022-10-25T06:00:15.640Z,9.757513
2022-10-25T06:01:15.691Z,9.757541
2022-10-25T06:02:15.702Z,9.757568
2022-10-25T06:03:15.609Z,9.757564
2022-10-25T06:04:15.631Z,9.757438
2022-10-25T06:05:15.606Z,9.757364
2022-10-25T06:06:15.595Z,9.757428
2022-10-25T06:07:15.571Z,9.757673
2022-10-25T06:08:15.564Z,9.757610
2022-10-25T06:09:15.598Z,9.757537
2022-10-25T06:10:15.547Z,9.757548
2022-10-25T06:11:15.548Z,9.757505
2022-10-25T06:12:15.534Z,9.757565
2022-10-25T06:13:15.523Z,9.757406
2022-10-25T06:14:15.543Z,9.757496
2022-10-25T06:15:15.501Z,9.757557
2022-10-25T06:16:15.504Z,9.757519
2022-10-25T06:17:15.483Z,9.757504
2022-10-25T06:18:15.478Z,9.757492
2022-10-25T06:19:15.501Z,9.757631
2022-10-25T06:20:15.479Z,9.757621
2022-10-25T06:21:15.466Z,9.757547
2022-10-25T06:22:15.448Z,9.757481
2022-10-25T06:23:15.438Z,9.757600
2022-10-25T06:24:15.461Z,9.757557
2022-10-25T06:25:15.443Z,9.757484
2022-10-25T06:26:15.413Z,9.757484
2022-10-25T06:27:15.430Z,9.757544
2022-10-25T06:28:15.397Z,9.757586
2022-10-25T06:29:15.420Z,9.757664
2022-10-25T06:30:15.379Z,9.757725
2022-10-25T06:31:15.372Z,9.757690
2022-10-25T06:32:15.372Z,9.757579
2022-10-25T06:33:15.361Z,9.757577
2022-10-25T06:34:15.393Z,9.757486
2022-10-25T06:35:15.336Z,9.757489
2022-10-25T06:36:15.331Z,9.757461
2022-10-25T06:37:15.330Z,9.757646
2022-10-25T06:38:15.319Z,9.757553
2022-10-25T06:39:15.343Z,9.757551
2022-10-25T06:40:15.312Z,9.757607
2022-10-25T06:41:15.288Z,9.757565
2022-10-25T06:42:15.275Z,9.757607
2022-10-25T06:43:15.263Z,9.757668
2022-10-25T06:44:15.291Z,9.757593
2022-10-25T06:45:15.257Z,9.757649
2022-10-25T06:46:15.251Z,9.757691
2022-10-25T06:47:17.658Z,9.757615
2022-10-25T06:48:16.218Z,9.757586
2022-10-25T06:49:15.254Z,9.757595
2022-10-25T06:50:15.207Z,9.757546
2022-10-25T06:51:15.199Z,9.757514
2022-10-25T06:52:15.193Z,9.757728
2022-10-25T06:53:15.189Z,9.757668
2022-10-25T06:54:15.208Z,9.757577
2022-10-25T06:55:15.157Z,9.757478
2022-10-25T06:56:15.330Z,9.757599
2022-10-25T06:57:15.144Z,9.757597
2022-10-25T06:58:15.141Z,9.757545
2022-10-25T06:59:15.128Z,9.757195
2022-10-25T07:00:15.164Z,9.757378
2022-10-25T07:01:15.237Z,9.757471
2022-10-25T07:02:15.242Z,9.757545
2022-10-25T07:03:15.092Z,9.757504
2022-10-25T07:04:15.129Z,9.757565
2022-10-25T07:05:15.078Z,9.757541
2022-10-25T07:06:15.064Z,9.757567
2022-10-25T07:07:15.065Z,9.757566
2022-10-25T07:08:15.057Z,9.757527
2022-10-25T07:09:15.071Z,9.757523
2022-10-25T07:10:15.029Z,9.757471
2022-10-25T07:11:15.024Z,9.757448
2022-10-25T07:12:15.021Z,9.757470
2022-10-25T07:13:15.010Z,9.757496
2022-10-25T07:14:14.996Z,9.757420
2022-10-25T07:15:15.070Z,9.757474
2022-10-25T07:16:14.984Z,9.757494
2022-10-25T07:17:14.974Z,9.757529
2022-10-25T07:18:14.962Z,9.757480
2022-10-25T07:19:14.987Z,9.757509
2022-10-25T07:20:14.942Z,9.757451
2022-10-25T07:21:14.940Z,9.757488
2022-10-25T07:22:14.931Z,9.757510
2022-10-25T07:23:14.928Z,9.757540
2022-10-25T07:24:14.920Z,9.757505
2022-10-25T07:25:14.954Z,9.757594
2022-10-25T07:26:14.899Z,9.757485
2022-10-25T07:27:14.888Z,9.757505
2022-10-25T07:28:14.878Z,9.757568
2022-10-25T07:29:15.090Z,9.757631
2022-10-25T07:30:14.889Z,9.757595
2022-10-25T07:31:14.851Z,9.757594
2022-10-25T07:32:14.836Z,9.757564
2022-10-25T07:33:14.830Z,9.757581
2022-10-25T07:34:14.822Z,9.757544
2022-10-25T07:35:14.854Z,9.757590
2022-10-25T07:36:14.822Z,9.757614
2022-10-25T07:37:14.799Z,9.757620
2022-10-25T07:38:14.787Z,9.757566
2022-10-25T07:39:14.778Z,9.757649
2022-10-25T07:40:14.808Z,9.757524
2022-10-25T07:41:14.766Z,9.757410
2022-10-25T07:42:14.750Z,9.757339
2022-10-25T07:43:14.737Z,9.757656
2022-10-25T07:44:17.588Z,9.757566
2022-10-25T07:45:18.685Z,9.757649
2022-10-25T07:46:15.718Z,9.757699
2022-10-25T07:47:14.708Z,9.757591
2022-10-25T07:48:14.705Z,9.757595
2022-10-25T07:49:14.694Z,9.757565
2022-10-25T07:50:14.710Z,9.757633
2022-10-25T07:51:14.691Z,9.757641
2022-10-25T07:52:14.673Z,9.757815
2022-10-25T07:53:14.660Z,9.757826
2022-10-25T07:54:14.654Z,9.757847
2022-10-25T07:55:14.685Z,9.757844
2022-10-25T07:56:17.464Z,9.757864
2022-10-25T07:57:15.628Z,9.757716
2022-10-25T07:58:14.614Z,9.757600
2022-10-25T07:59:14.611Z,9.757671
2022-10-25T08:00:14.640Z,9.757505
2022-10-25T08:01:14.614Z,9.757713
2022-10-25T08:02:14.577Z,9.757595
2022-10-25T08:03:14.686Z,9.757229
2022-10-25T08:04:14.561Z,9.757496
2022-10-25T08:05:14.562Z,9.757479
2022-10-25T08:06:14.579Z,9.757536
2022-10-25T08:07:14.546Z,9.757661
2022-10-25T08:08:14.532Z,9.757608
2022-10-25T08:09:33.121Z,9.757558
2022-10-25T08:10:15.555Z,9.757556
2022-10-25T08:11:14.519Z,9.757612
2022-10-25T08:12:16.212Z,9.757619
2022-10-25T08:13:14.483Z,9.757564
2022-10-25T08:14:14.543Z,9.757432
2022-10-25T08:15:14.485Z,9.757459
2022-10-25T08:16:14.504Z,9.757330
2022-10-25T08:17:14.454Z,9.757439
2022-10-25T08:18:14.448Z,9.757438
2022-10-25T08:19:14.443Z,9.757582
2022-10-25T08:20:14.433Z,9.757488
2022-10-25T08:21:14.451Z,9.757252
2022-10-25T08:22:14.435Z,9.758445
2022-10-25T08:23:14.421Z,9.757463
2022-10-25T08:24:14.484Z,9.757596
2022-10-25T08:25:14.393Z,9.757668
2022-10-25T08:26:14.417Z,9.757427
2022-10-25T08:27:14.376Z,9.757402
2022-10-25T08:28:14.368Z,9.756928
2022-10-25T08:29:14.349Z,9.757410
2022-10-25T08:30:14.346Z,9.757381
2022-10-25T08:31:14.431Z,9.757395
2022-10-25T08:32:14.330Z,9.757468
2022-10-25T08:33:14.325Z,9.757422
2022-10-25T08:34:14.326Z,9.757413
2022-10-25T08:35:14.316Z,9.757308
2022-10-25T08:36:14.333Z,9.757399
2022-10-25T08:37:14.297Z,9.757339
2022-10-25T08:38:14.282Z,9.757253
2022-10-25T08:39:14.270Z,9.757493
2022-10-25T08:40:14.260Z,9.757486
2022-10-25T08:41:14.283Z,9.757391
2022-10-25T08:42:14.245Z,9.757357
2022-10-25T08:43:14.243Z,9.757403
2022-10-25T08:44:14.229Z,9.757382
2022-10-25T08:45:14.215Z,9.757369
2022-10-25T08:46:14.237Z,9.757232
2022-10-25T08:47:14.201Z,9.757327
2022-10-25T08:48:14.199Z,9.757262
2022-10-25T08:49:14.181Z,9.757384
2022-10-25T08:50:14.174Z,9.757408
2022-10-25T08:51:14.208Z,9.757388
2022-10-25T08:52:16.718Z,9.757481
2022-10-25T08:53:15.152Z,9.757469
2022-10-25T08:54:14.142Z,9.757434
2022-10-25T08:55:14.131Z,9.757473
2022-10-25T08:56:17.746Z,9.757730
2022-10-25T08:57:16.293Z,9.757646
2022-10-25T08:58:15.117Z,9.757575
2022-10-25T08:59:14.100Z,9.757463
2022-10-25T09:00:14.091Z,9.757411
2022-10-25T09:01:14.229Z,9.757382
2022-10-25T09:02:14.150Z,9.757488
2022-10-25T09:03:15.387Z,9.757494
2022-10-25T09:04:15.071Z,9.757473
2022-10-25T09:05:14.047Z,9.757590
2022-10-25T09:06:14.067Z,9.757470
2022-10-25T09:07:14.063Z,9.757482
2022-10-25T09:08:14.019Z,9.757524
2022-10-25T09:09:14.015Z,9.757521
2022-10-25T09:10:14.011Z,9.757529
2022-10-25T09:11:14.030Z,9.757438
2022-10-25T09:12:13.998Z,9.757530
2022-10-25T09:13:14.000Z,9.757375
2022-10-25T09:14:13.977Z,9.757419
2022-10-25T09:15:13.968Z,9.757490
2022-10-25T09:16:13.994Z,9.757468
2022-10-25T09:17:13.956Z,9.757481
2022-10-25T09:18:13.942Z,9.757492
2022-10-25T09:19:13.998Z,9.757507
2022-10-25T09:20:13.926Z,9.757590
2022-10-25T09:21:17.519Z,9.757614
2022-10-25T09:22:14.917Z,9.757713
2022-10-25T09:23:13.930Z,9.757478
2022-10-25T09:24:13.889Z,9.757483
2022-10-25T09:25:13.897Z,9.757565
2022-10-25T09:26:13.909Z,9.757502
2022-10-25T09:27:13.877Z,9.757673
2022-10-25T09:28:13.864Z,9.757507
2022-10-25T09:29:13.854Z,9.757454
2022-10-25T09:30:13.845Z,9.757370
2022-10-25T09:31:13.864Z,9.757545
2022-10-25T09:32:13.826Z,9.757549
2022-10-25T09:33:13.915Z,9.757443
2022-10-25T09:34:13.815Z,9.757532
2022-10-25T09:35:13.804Z,9.757476
2022-10-25T09:36:13.814Z,9.757524
2022-10-25T09:37:13.795Z,9.757420
2022-10-25T09:38:13.774Z,9.757412
2022-10-25T09:39:15.951Z,9.757358
2022-10-25T09:40:14.756Z,9.757457
2022-10-25T09:41:13.778Z,9.757488
2022-10-25T09:42:13.739Z,9.757398
2022-10-25T09:43:13.735Z,9.757527
2022-10-25T09:44:13.721Z,9.757563
2022-10-25T09:45:13.712Z,9.757453
2022-10-25T09:46:13.730Z,9.757423
2022-10-25T09:47:13.701Z,9.757364
2022-10-25T09:48:13.686Z,9.757327
2022-10-25T09:49:13.678Z,9.757460
2022-10-25T09:50:13.667Z,9.757342
2022-10-25T09:51:13.694Z,9.757391
2022-10-25T09:52:13.650Z,9.757405
2022-10-25T09:53:14.258Z,9.757292
2022-10-25T09:54:13.651Z,9.757456
2022-10-25T09:55:13.627Z,9.757444
2022-10-25T09:56:13.646Z,9.757443
2022-10-25T09:57:13.635Z,9.757499
2022-10-25T09:58:13.604Z,9.757600
2022-10-25T09:59:13.600Z,9.757563
2022-10-25T10:00:13.591Z,9.757545
2022-10-25T10:01:13.690Z,9.757708
2022-10-25T10:02:13.769Z,9.757859
2022-10-25T10:03:13.568Z,9.757656
2022-10-25T10:04:13.558Z,9.757643
2022-10-25T10:05:13.542Z,9.757560
2022-10-25T10:06:13.537Z,9.757465
2022-10-25T10:07:13.563Z,9.757473
2022-10-25T10:08:13.525Z,9.757422
2022-10-25T10:09:13.516Z,9.757450
2022-10-25T10:10:13.544Z,9.757503
2022-10-25T10:11:13.506Z,9.757502
2022-10-25T10:12:13.516Z,9.757531
2022-10-25T10:13:13.489Z,9.757513
2022-10-25T10:14:13.472Z,9.757511
2022-10-25T10:15:13.467Z,9.757480
2022-10-25T10:16:13.458Z,9.757503
2022-10-25T10:17:13.483Z,9.757529
2022-10-25T10:18:13.445Z,9.757533
2022-10-25T10:19:13.431Z,9.757496
2022-10-25T10:20:13.422Z,9.757560
2022-10-25T10:21:13.410Z,9.757426
2022-10-25T10:22:13.457Z,9.757464
2022-10-25T10:23:13.395Z,9.757461
2022-10-25T10:24:13.392Z,9.757484
2022-10-25T10:25:13.381Z,9.757439
2022-10-25T10:26:13.367Z,9.757470
2022-10-25T10:27:13.395Z,9.757408
2022-10-25T10:28:13.350Z,9.757494
2022-10-25T10:29:17.560Z,9.757455
2022-10-25T10:30:14.364Z,9.757586
2022-10-25T10:31:13.326Z,9.757524
2022-10-25T10:32:13.346Z,9.757476
2022-10-25T10:33:13.314Z,9.757524
2022-10-25T10:34:13.301Z,9.757536
2022-10-25T10:35:13.295Z,9.757485
2022-10-25T10:36:13.286Z,9.757469
2022-10-25T10:37:13.312Z,9.757608
2022-10-25T10:38:13.268Z,9.757623
2022-10-25T10:39:13.258Z,9.757476
2022-10-25T10:40:13.361Z,9.757426
2022-10-25T10:41:13.241Z,9.757418
2022-10-25T10:42:15.158Z,9.757551
2022-10-25T10:43:14.228Z,9.757617
2022-10-25T10:44:13.235Z,9.757629
2022-10-25T10:45:13.209Z,9.757425
2022-10-25T10:46:13.204Z,9.757458
2022-10-25T10:47:14.217Z,9.757493
2022-10-25T10:48:13.190Z,9.757520
2022-10-25T10:49:13.178Z,9.757498
2022-10-25T10:50:13.241Z,9.757508
2022-10-25T10:51:25.506Z,9.757519
2022-10-25T10:52:15.210Z,9.757550
2022-10-25T10:53:13.146Z,9.757574
2022-10-25T10:54:13.209Z,9.757465
2022-10-25T10:55:13.122Z,9.757473
2022-10-25T10:56:13.128Z,9.757567
2022-10-25T10:57:13.136Z,9.757500
2022-10-25T10:58:13.098Z,9.757504
2022-10-25T10:59:13.089Z,9.757414
2022-10-25T11:00:13.105Z,9.757486
2022-10-25T11:01:13.176Z,9.757493
2022-10-25T11:02:13.312Z,9.757513
2022-10-25T11:03:13.057Z,9.757545
2022-10-25T11:04:13.055Z,9.757424
2022-10-25T11:05:13.040Z,9.757541
2022-10-25T11:06:13.037Z,9.757473
2022-10-25T11:07:13.057Z,9.757586
2022-10-25T11:08:13.013Z,9.757505
2022-10-25T11:09:13.061Z,9.757528
2022-10-25T11:10:12.995Z,9.757417
2022-10-25T11:11:12.989Z,9.757478
2022-10-25T11:12:13.015Z,9.757438
2022-10-25T11:13:13.043Z,9.757480
2022-10-25T11:14:12.959Z,9.757445
2022-10-25T11:15:12.954Z,9.757513
2022-10-25T11:16:12.943Z,9.757536
2022-10-25T11:17:12.941Z,9.757496
2022-10-25T11:18:12.964Z,9.757498
2022-10-25T11:19:12.922Z,9.757467
2022-10-25T11:20:12.913Z,9.757554
2022-10-25T11:21:12.895Z,9.757458
2022-10-25T11:22:12.922Z,9.757517
2022-10-25T11:23:12.902Z,9.757522
2022-10-25T11:24:12.875Z,9.757560
2022-10-25T11:25:12.865Z,9.757429
2022-10-25T11:26:12.860Z,9.757421
2022-10-25T11:27:12.863Z,9.757480
2022-10-25T11:28:12.877Z,9.757446
2022-10-25T11:29:12.907Z,9.757306
2022-10-25T11:30:12.825Z,9.757370
2022-10-25T11:31:12.823Z,9.757402
2022-10-25T11:32:12.812Z,9.757433
2022-10-25T11:33:12.838Z,9.757550
2022-10-25T11:34:12.792Z,9.757367
2022-10-25T11:35:12.782Z,9.757426
2022-10-25T11:36:12.775Z,9.757521
2022-10-25T11:37:12.766Z,9.757521
2022-10-25T11:38:12.785Z,9.757397
2022-10-25T11:39:12.748Z,9.757480
2022-10-25T11:40:12.750Z,9.757463
2022-10-25T11:41:12.733Z,9.757455
2022-10-25T11:42:12.749Z,9.757365
2022-10-25T11:43:12.745Z,9.757443
2022-10-25T11:44:12.709Z,9.757420
2022-10-25T11:45:12.765Z,9.757395